sensor_id;sensor_type;location;lat;lon;timestamp;pressure;altitude;pressure_sealevel;temperature;humidity
41246;BME280;53880;47.526;18.986;2023-04-04T00:00:54;99952.19;;;20.83;46.06
41246;BME280;53880;47.526;18.986;2023-04-04T00:03:14;99959.56;;;20.81;46.18
41246;BME280;53880;47.526;18.986;2023-04-04T00:05:32;99956.19;;;20.79;46.05
41246;BME280;53880;47.526;18.986;2023-04-04T00:07:51;99961.72;;;20.78;46.24
41246;BME280;53880;47.526;18.986;2023-04-04T00:10:08;99964.72;;;20.75;46.35
41246;BME280;53880;47.526;18.986;2023-04-04T00:12:24;99968.41;;;20.74;46.29
41246;BME280;53880;47.526;18.986;2023-04-04T00:14:39;99957.19;;;20.70;46.16
41246;BME280;53880;47.526;18.986;2023-04-04T00:16:56;99966.22;;;20.69;46.38
41246;BME280;53880;47.526;18.986;2023-04-04T00:19:12;99965.38;;;20.69;46.40
41246;BME280;53880;47.526;18.986;2023-04-04T00:21:31;99968.22;;;20.67;46.25
41246;BME280;53880;47.526;18.986;2023-04-04T00:23:47;99969.06;;;20.68;46.55
41246;BME280;53880;47.526;18.986;2023-04-04T00:26:09;99970.03;;;20.67;46.78
41246;BME280;53880;47.526;18.986;2023-04-04T00:28:25;99978.25;;;20.65;46.85
41246;BME280;53880;47.526;18.986;2023-04-04T00:30:43;99974.72;;;20.65;46.91
41246;BME280;53880;47.526;18.986;2023-04-04T00:32:58;99974.03;;;20.63;46.76
41246;BME280;53880;47.526;18.986;2023-04-04T00:35:20;99981.41;;;20.61;47.06
41246;BME280;53880;47.526;18.986;2023-04-04T00:37:38;99980.53;;;20.60;46.89
41246;BME280;53880;47.526;18.986;2023-04-04T00:39:53;99978.03;;;20.59;46.98
41246;BME280;53880;47.526;18.986;2023-04-04T00:42:08;99983.69;;;20.56;46.94
41246;BME280;53880;47.526;18.986;2023-04-04T00:44:27;99977.84;;;20.52;47.21
41246;BME280;53880;47.526;18.986;2023-04-04T00:46:46;99981.66;;;20.49;47.05
41246;BME280;53880;47.526;18.986;2023-04-04T00:49:01;99986.16;;;20.49;46.99
41246;BME280;53880;47.526;18.986;2023-04-04T00:51:19;99985.50;;;20.47;46.96
41246;BME280;53880;47.526;18.986;2023-04-04T00:53:35;99986.50;;;20.46;47.14
41246;BME280;53880;47.526;18.986;2023-04-04T00:55:52;99985.66;;;20.45;47.04
41246;BME280;53880;47.526;18.986;2023-04-04T00:58:07;99981.28;;;20.44;47.38
41246;BME280;53880;47.526;18.986;2023-04-04T01:00:23;99973.59;;;20.41;47.18
41246;BME280;53880;47.526;18.986;2023-04-04T01:02:40;99972.75;;;20.41;47.27
41246;BME280;53880;47.526;18.986;2023-04-04T01:04:59;99964.91;;;20.39;47.36
41246;BME280;53880;47.526;18.986;2023-04-04T01:07:17;99950.00;;;20.37;47.20
41246;BME280;53880;47.526;18.986;2023-04-04T01:09:33;99957.16;;;20.36;47.07
41246;BME280;53880;47.526;18.986;2023-04-04T01:11:53;99949.31;;;20.35;47.16
41246;BME280;53880;47.526;18.986;2023-04-04T01:14:15;99944.13;;;20.33;47.15
41246;BME280;53880;47.526;18.986;2023-04-04T01:16:30;99949.63;;;20.32;47.35
41246;BME280;53880;47.526;18.986;2023-04-04T01:18:47;99943.59;;;20.30;47.35
41246;BME280;53880;47.526;18.986;2023-04-04T01:21:09;99941.75;;;20.30;47.44
41246;BME280;53880;47.526;18.986;2023-04-04T01:23:56;99930.38;;;20.28;47.35
41246;BME280;53880;47.526;18.986;2023-04-04T01:26:12;99936.72;;;20.27;47.62
41246;BME280;53880;47.526;18.986;2023-04-04T01:28:32;99937.72;;;20.26;47.53
41246;BME280;53880;47.526;18.986;2023-04-04T01:30:50;99932.69;;;20.23;47.82
41246;BME280;53880;47.526;18.986;2023-04-04T01:33:27;99922.16;;;20.22;47.81
41246;BME280;53880;47.526;18.986;2023-04-04T01:36:02;99929.34;;;20.21;47.85
41246;BME280;53880;47.526;18.986;2023-04-04T01:38:32;99916.97;;;20.20;47.74
41246;BME280;53880;47.526;18.986;2023-04-04T01:40:54;99919.75;;;20.19;47.88
41246;BME280;53880;47.526;18.986;2023-04-04T01:43:13;99917.25;;;20.17;48.03
41246;BME280;53880;47.526;18.986;2023-04-04T01:45:33;99911.91;;;20.17;47.79
41246;BME280;53880;47.526;18.986;2023-04-04T01:47:59;99905.88;;;20.15;47.66
41246;BME280;53880;47.526;18.986;2023-04-04T01:50:18;99906.03;;;20.14;47.73
41246;BME280;53880;47.526;18.986;2023-04-04T01:52:36;99894.50;;;20.13;47.94
41246;BME280;53880;47.526;18.986;2023-04-04T01:54:54;99894.66;;;20.12;47.91
41246;BME280;53880;47.526;18.986;2023-04-04T01:57:12;99883.28;;;20.10;47.84
41246;BME280;53880;47.526;18.986;2023-04-04T01:59:29;99880.59;;;20.10;47.78
41246;BME280;53880;47.526;18.986;2023-04-04T02:01:45;99879.91;;;20.08;47.87
41246;BME280;53880;47.526;18.986;2023-04-04T02:04:00;99872.88;;;20.07;47.97
41246;BME280;53880;47.526;18.986;2023-04-04T02:06:18;99878.41;;;20.05;47.98
41246;BME280;53880;47.526;18.986;2023-04-04T02:08:39;99873.19;;;20.04;48.07
41246;BME280;53880;47.526;18.986;2023-04-04T02:10:57;99866.19;;;20.03;47.73
41246;BME280;53880;47.526;18.986;2023-04-04T02:13:14;99859.13;;;20.02;47.81
41246;BME280;53880;47.526;18.986;2023-04-04T02:15:30;99861.13;;;20.00;48.00
41246;BME280;53880;47.526;18.986;2023-04-04T02:17:50;99850.44;;;20.00;47.83
41246;BME280;53880;47.526;18.986;2023-04-04T02:20:08;99856.81;;;19.99;47.96
41246;BME280;53880;47.526;18.986;2023-04-04T02:22:28;99844.41;;;19.98;48.15
41246;BME280;53880;47.526;18.986;2023-04-04T02:24:48;99844.59;;;19.96;48.17
41246;BME280;53880;47.526;18.986;2023-04-04T02:27:12;99841.91;;;19.96;47.98
41246;BME280;53880;47.526;18.986;2023-04-04T02:29:27;99842.91;;;19.95;48.13
41246;BME280;53880;47.526;18.986;2023-04-04T02:31:44;99838.56;;;19.94;48.23
41246;BME280;53880;47.526;18.986;2023-04-04T02:34:04;99828.84;;;19.93;48.15
41246;BME280;53880;47.526;18.986;2023-04-04T02:36:22;99830.69;;;19.93;48.23
41246;BME280;53880;47.526;18.986;2023-04-04T02:38:39;99833.34;;;19.93;48.21
41246;BME280;53880;47.526;18.986;2023-04-04T02:40:59;99832.66;;;19.91;48.46
41246;BME280;53880;47.526;18.986;2023-04-04T02:43:18;99828.34;;;19.90;48.23
41246;BME280;53880;47.526;18.986;2023-04-04T02:45:42;99824.81;;;19.89;48.46
41246;BME280;53880;47.526;18.986;2023-04-04T02:48:11;99825.00;;;19.88;48.19
41246;BME280;53880;47.526;18.986;2023-04-04T02:50:31;99824.16;;;19.87;48.44
41246;BME280;53880;47.526;18.986;2023-04-04T02:52:54;99833.19;;;19.86;48.58
41246;BME280;53880;47.526;18.986;2023-04-04T02:55:16;99835.84;;;19.86;48.35
41246;BME280;53880;47.526;18.986;2023-04-04T02:57:35;99823.47;;;19.85;48.43
41246;BME280;53880;47.526;18.986;2023-04-04T02:59:52;99834.31;;;19.84;48.55
41246;BME280;53880;47.526;18.986;2023-04-04T03:02:07;99839.81;;;19.82;48.39
41246;BME280;53880;47.526;18.986;2023-04-04T03:04:22;99834.63;;;19.81;48.33
41246;BME280;53880;47.526;18.986;2023-04-04T03:06:38;99839.13;;;19.80;48.46
41246;BME280;53880;47.526;18.986;2023-04-04T03:08:58;99842.81;;;19.79;48.52
41246;BME280;53880;47.526;18.986;2023-04-04T03:11:25;99842.94;;;19.77;48.27
41246;BME280;53880;47.526;18.986;2023-04-04T03:13:43;99844.81;;;19.77;48.52
41246;BME280;53880;47.526;18.986;2023-04-04T03:16:03;99843.97;;;19.76;48.50
41246;BME280;53880;47.526;18.986;2023-04-04T03:18:31;99846.81;;;19.75;48.21
41246;BME280;53880;47.526;18.986;2023-04-04T03:20:54;99848.63;;;19.74;48.47
41246;BME280;53880;47.526;18.986;2023-04-04T03:23:08;99853.31;;;19.72;48.47
41246;BME280;53880;47.526;18.986;2023-04-04T03:25:25;99852.44;;;19.72;48.37
41246;BME280;53880;47.526;18.986;2023-04-04T03:27:42;99849.78;;;19.72;48.49
41246;BME280;53880;47.526;18.986;2023-04-04T03:30:10;99849.94;;;19.70;48.39
41246;BME280;53880;47.526;18.986;2023-04-04T03:32:25;99848.25;;;19.69;48.51
41246;BME280;53880;47.526;18.986;2023-04-04T03:34:43;99852.75;;;19.69;48.37
41246;BME280;53880;47.526;18.986;2023-04-04T03:36:58;99855.59;;;19.67;48.50
41246;BME280;53880;47.526;18.986;2023-04-04T03:39:16;99853.94;;;19.66;48.37
41246;BME280;53880;47.526;18.986;2023-04-04T03:41:31;99857.59;;;19.65;48.63
41246;BME280;53880;47.526;18.986;2023-04-04T03:43:46;99856.75;;;19.65;48.59
41246;BME280;53880;47.526;18.986;2023-04-04T03:46:03;99855.09;;;19.64;48.51
41246;BME280;53880;47.526;18.986;2023-04-04T03:48:21;99863.09;;;19.64;48.69
41246;BME280;53880;47.526;18.986;2023-04-04T03:50:39;99866.75;;;19.63;48.75
41246;BME280;53880;47.526;18.986;2023-04-04T03:52:54;99865.91;;;19.62;48.55
41246;BME280;53880;47.526;18.986;2023-04-04T03:55:09;99866.06;;;19.61;48.57
41246;BME280;53880;47.526;18.986;2023-04-04T03:57:25;99866.06;;;19.61;48.55
41246;BME280;53880;47.526;18.986;2023-04-04T03:59:43;99857.38;;;19.59;48.88
41246;BME280;53880;47.526;18.986;2023-04-04T04:02:01;99861.88;;;19.58;48.77
41246;BME280;53880;47.526;18.986;2023-04-04T04:04:21;99862.03;;;19.57;48.81
41246;BME280;53880;47.526;18.986;2023-04-04T04:06:36;99859.38;;;19.57;48.84
41246;BME280;53880;47.526;18.986;2023-04-04T04:08:51;99848.84;;;19.55;48.69
41246;BME280;53880;47.526;18.986;2023-04-04T04:11:07;99859.53;;;19.55;48.69
41246;BME280;53880;47.526;18.986;2023-04-04T04:13:25;99861.34;;;19.55;48.95
41246;BME280;53880;47.526;18.986;2023-04-04T04:15:42;99852.50;;;19.54;48.69
41246;BME280;53880;47.526;18.986;2023-04-04T04:18:04;99853.50;;;19.53;48.61
41246;BME280;53880;47.526;18.986;2023-04-04T04:20:20;99853.50;;;19.53;48.88
41246;BME280;53880;47.526;18.986;2023-04-04T04:22:44;99848.28;;;19.52;48.67
41246;BME280;53880;47.526;18.986;2023-04-04T04:25:02;99841.44;;;19.49;48.87
41246;BME280;53880;47.526;18.986;2023-04-04T04:27:18;99844.94;;;19.50;48.90
41246;BME280;53880;47.526;18.986;2023-04-04T04:29:36;99846.81;;;19.49;48.96
41246;BME280;53880;47.526;18.986;2023-04-04T04:31:51;99847.78;;;19.48;48.75
41246;BME280;53880;47.526;18.986;2023-04-04T04:34:11;99842.59;;;19.47;48.85
41246;BME280;53880;47.526;18.986;2023-04-04T04:36:32;99844.44;;;19.46;48.76
41246;BME280;53880;47.526;18.986;2023-04-04T04:39:07;99846.25;;;19.46;48.76
41246;BME280;53880;47.526;18.986;2023-04-04T04:41:34;99846.25;;;19.46;48.67
41246;BME280;53880;47.526;18.986;2023-04-04T04:43:55;99836.72;;;19.43;48.83
41246;BME280;53880;47.526;18.986;2023-04-04T04:46:13;99848.25;;;19.44;48.85
41246;BME280;53880;47.526;18.986;2023-04-04T04:48:29;99847.56;;;19.42;48.84
41246;BME280;53880;47.526;18.986;2023-04-04T04:50:49;99845.91;;;19.41;48.93
41246;BME280;53880;47.526;18.986;2023-04-04T04:53:15;99841.38;;;19.41;48.95
41246;BME280;53880;47.526;18.986;2023-04-04T04:55:33;99846.88;;;19.40;48.94
41246;BME280;53880;47.526;18.986;2023-04-04T04:57:58;99844.22;;;19.40;48.90
41246;BME280;53880;47.526;18.986;2023-04-04T05:00:15;99843.38;;;19.39;48.86
41246;BME280;53880;47.526;18.986;2023-04-04T05:02:33;99847.03;;;19.38;48.70
41246;BME280;53880;47.526;18.986;2023-04-04T05:04:57;99843.38;;;19.39;48.90
41246;BME280;53880;47.526;18.986;2023-04-04T05:07:13;99852.91;;;19.42;48.64
41246;BME280;53880;47.526;18.986;2023-04-04T05:09:33;99848.25;;;19.44;48.44
41246;BME280;53880;47.526;18.986;2023-04-04T05:11:56;99841.59;;;19.48;48.55
41246;BME280;53880;47.526;18.986;2023-04-04T05:14:23;99832.81;;;19.55;48.78
41246;BME280;53880;47.526;18.986;2023-04-04T05:16:43;99834.69;;;19.63;48.61
41246;BME280;53880;47.526;18.986;2023-04-04T05:19:02;99833.75;;;19.72;48.28
41246;BME280;53880;47.526;18.986;2023-04-04T05:21:22;99836.84;;;19.85;48.12
41246;BME280;53880;47.526;18.986;2023-04-04T05:23:44;99837.44;;;20.05;48.26
41246;BME280;53880;47.526;18.986;2023-04-04T05:26:01;99842.34;;;20.17;47.86
41246;BME280;53880;47.526;18.986;2023-04-04T05:28:21;99836.06;;;20.26;47.48
41246;BME280;53880;47.526;18.986;2023-04-04T05:30:44;99842.13;;;20.36;47.67
41246;BME280;53880;47.526;18.986;2023-04-04T05:33:06;99840.31;;;20.45;47.50
41246;BME280;53880;47.526;18.986;2023-04-04T05:35:21;99842.34;;;20.51;47.37
41246;BME280;53880;47.526;18.986;2023-04-04T05:37:40;99845.88;;;20.60;47.02
41246;BME280;53880;47.526;18.986;2023-04-04T05:40:10;99841.38;;;20.68;47.04
41246;BME280;53880;47.526;18.986;2023-04-04T05:42:31;99843.75;;;20.71;46.83
41246;BME280;53880;47.526;18.986;2023-04-04T05:44:50;99843.41;;;20.74;47.23
41246;BME280;53880;47.526;18.986;2023-04-04T05:47:06;99852.94;;;20.77;46.86
41246;BME280;53880;47.526;18.986;2023-04-04T05:49:22;99848.59;;;20.76;46.84
41246;BME280;53880;47.526;18.986;2023-04-04T05:51:43;99855.78;;;20.75;46.83
41246;BME280;53880;47.526;18.986;2023-04-04T05:54:04;99847.75;;;20.75;46.66
41246;BME280;53880;47.526;18.986;2023-04-04T05:56:24;99845.94;;;20.76;46.62
41246;BME280;53880;47.526;18.986;2023-04-04T05:58:45;99853.97;;;20.76;46.50
41246;BME280;53880;47.526;18.986;2023-04-04T06:01:07;99852.25;;;20.75;46.60
41246;BME280;53880;47.526;18.986;2023-04-04T06:03:31;99853.13;;;20.75;46.51
41246;BME280;53880;47.526;18.986;2023-04-04T06:05:52;99859.31;;;20.76;46.34
41246;BME280;53880;47.526;18.986;2023-04-04T06:08:10;99864.66;;;20.76;46.46
41246;BME280;53880;47.526;18.986;2023-04-04T06:10:27;99866.50;;;20.75;46.48
41246;BME280;53880;47.526;18.986;2023-04-04T06:12:47;99856.94;;;20.73;46.52
41246;BME280;53880;47.526;18.986;2023-04-04T06:15:02;99862.66;;;20.70;46.42
41246;BME280;53880;47.526;18.986;2023-04-04T06:17:20;99854.94;;;20.67;46.62
41246;BME280;53880;47.526;18.986;2023-04-04T06:19:35;99848.72;;;20.66;46.46
41246;BME280;53880;47.526;18.986;2023-04-04T06:21:50;99852.44;;;20.65;46.44
41246;BME280;53880;47.526;18.986;2023-04-04T06:24:06;99848.91;;;20.65;46.68
41246;BME280;53880;47.526;18.986;2023-04-04T06:26:24;99853.09;;;20.67;46.44
41246;BME280;53880;47.526;18.986;2023-04-04T06:28:47;99860.81;;;20.70;46.71
41246;BME280;53880;47.526;18.986;2023-04-04T06:31:08;99857.97;;;20.72;46.36
41246;BME280;53880;47.526;18.986;2023-04-04T06:33:23;99858.63;;;20.74;46.59
41246;BME280;53880;47.526;18.986;2023-04-04T06:35:41;99848.91;;;20.73;46.48
41246;BME280;53880;47.526;18.986;2023-04-04T06:38:03;99836.56;;;20.72;46.75
41246;BME280;53880;47.526;18.986;2023-04-04T06:40:24;99818.00;;;20.70;46.51
41246;BME280;53880;47.526;18.986;2023-04-04T06:42:49;99813.13;;;20.66;46.87
41246;BME280;53880;47.526;18.986;2023-04-04T06:45:10;99821.47;;;20.63;46.95
41246;BME280;53880;47.526;18.986;2023-04-04T06:47:30;99827.13;;;20.60;46.83
41246;BME280;53880;47.526;18.986;2023-04-04T06:49:48;99822.31;;;20.55;47.18
41246;BME280;53880;47.526;18.986;2023-04-04T06:52:12;99818.09;;;20.52;47.16
41246;BME280;53880;47.526;18.986;2023-04-04T06:54:33;99819.44;;;20.48;47.11
41246;BME280;53880;47.526;18.986;2023-04-04T06:56:55;99810.88;;;20.45;47.00
41246;BME280;53880;47.526;18.986;2023-04-04T06:59:15;99820.22;;;20.41;47.16
41246;BME280;53880;47.526;18.986;2023-04-04T07:01:33;99816.88;;;20.39;47.29
41246;BME280;53880;47.526;18.986;2023-04-04T07:03:51;99815.38;;;20.36;47.12
41246;BME280;53880;47.526;18.986;2023-04-04T07:06:07;99821.06;;;20.33;47.30
41246;BME280;53880;47.526;18.986;2023-04-04T07:08:23;99820.53;;;20.30;47.38
41246;BME280;53880;47.526;18.986;2023-04-04T07:10:43;99823.53;;;20.27;47.23
41246;BME280;53880;47.526;18.986;2023-04-04T07:13:03;99827.19;;;20.26;47.15
41246;BME280;53880;47.526;18.986;2023-04-04T07:15:22;99830.03;;;20.24;47.31
41246;BME280;53880;47.526;18.986;2023-04-04T07:17:40;99844.41;;;20.23;47.42
41246;BME280;53880;47.526;18.986;2023-04-04T07:19:57;99848.78;;;20.24;47.27
41246;BME280;53880;47.526;18.986;2023-04-04T07:22:15;99849.44;;;20.26;47.30
41246;BME280;53880;47.526;18.986;2023-04-04T07:24:30;99851.94;;;20.28;47.11
41246;BME280;53880;47.526;18.986;2023-04-04T07:26:50;99848.81;;;20.32;47.60
41246;BME280;53880;47.526;18.986;2023-04-04T07:29:09;99845.66;;;20.37;47.48
41246;BME280;53880;47.526;18.986;2023-04-04T07:31:27;99845.16;;;20.41;47.62
41246;BME280;53880;47.526;18.986;2023-04-04T07:33:42;99848.88;;;20.48;47.53
41246;BME280;53880;47.526;18.986;2023-04-04T07:36:02;99843.72;;;20.55;47.56
41246;BME280;53880;47.526;18.986;2023-04-04T07:38:19;99846.56;;;20.62;47.16
41246;BME280;53880;47.526;18.986;2023-04-04T07:40:34;99839.53;;;20.69;46.87
41246;BME280;53880;47.526;18.986;2023-04-04T07:42:52;99838.22;;;20.73;46.33
41246;BME280;53880;47.526;18.986;2023-04-04T07:45:11;99839.25;;;20.80;46.49
41246;BME280;53880;47.526;18.986;2023-04-04T07:47:25;99839.41;;;20.86;46.48
41246;BME280;53880;47.526;18.986;2023-04-04T07:49:42;99844.94;;;20.93;46.94
41246;BME280;53880;47.526;18.986;2023-04-04T07:51:59;99838.44;;;20.95;46.80
41246;BME280;53880;47.526;18.986;2023-04-04T07:54:18;99836.59;;;20.96;46.36
41246;BME280;53880;47.526;18.986;2023-04-04T07:56:38;99837.59;;;20.95;46.32
41246;BME280;53880;47.526;18.986;2023-04-04T07:59:00;99848.31;;;20.95;46.13
41246;BME280;53880;47.526;18.986;2023-04-04T08:01:20;99838.59;;;20.94;46.21
41246;BME280;53880;47.526;18.986;2023-04-04T08:03:35;99829.88;;;20.92;46.49
41246;BME280;53880;47.526;18.986;2023-04-04T08:05:50;99838.09;;;20.90;46.49
41246;BME280;53880;47.526;18.986;2023-04-04T08:08:13;99848.13;;;20.88;46.51
41246;BME280;53880;47.526;18.986;2023-04-04T08:10:31;99838.56;;;20.86;46.32
41246;BME280;53880;47.526;18.986;2023-04-04T08:12:46;99835.22;;;20.84;46.42
41246;BME280;53880;47.526;18.986;2023-04-04T08:15:07;99831.88;;;20.82;46.24
41246;BME280;53880;47.526;18.986;2023-04-04T08:17:25;99823.16;;;20.80;46.43
41246;BME280;53880;47.526;18.986;2023-04-04T08:19:43;99827.69;;;20.79;46.45
41246;BME280;53880;47.526;18.986;2023-04-04T08:22:01;99838.56;;;20.78;46.46
41246;BME280;53880;47.526;18.986;2023-04-04T08:24:21;99851.28;;;20.76;46.47
41246;BME280;53880;47.526;18.986;2023-04-04T08:26:38;99852.25;;;20.75;46.31
41246;BME280;53880;47.526;18.986;2023-04-04T08:28:53;99850.59;;;20.74;46.37
41246;BME280;53880;47.526;18.986;2023-04-04T08:31:11;99850.09;;;20.70;46.55
41246;BME280;53880;47.526;18.986;2023-04-04T08:33:31;99844.75;;;20.70;46.58
41246;BME280;53880;47.526;18.986;2023-04-04T08:35:49;99835.88;;;20.70;46.57
41246;BME280;53880;47.526;18.986;2023-04-04T08:38:11;99839.72;;;20.67;46.65
41246;BME280;53880;47.526;18.986;2023-04-04T08:40:31;99836.38;;;20.65;46.41
41246;BME280;53880;47.526;18.986;2023-04-04T08:42:51;99845.38;;;20.64;46.63
41246;BME280;53880;47.526;18.986;2023-04-04T08:45:10;99842.03;;;20.62;46.41
41246;BME280;53880;47.526;18.986;2023-04-04T08:47:25;99851.94;;;20.62;46.72
41246;BME280;53880;47.526;18.986;2023-04-04T08:49:46;99830.66;;;20.60;46.78
41246;BME280;53880;47.526;18.986;2023-04-04T08:52:04;99824.16;;;20.63;46.51
41246;BME280;53880;47.526;18.986;2023-04-04T08:54:25;99824.16;;;20.63;46.76
41246;BME280;53880;47.526;18.986;2023-04-04T08:56:42;99828.81;;;20.61;46.47
41246;BME280;53880;47.526;18.986;2023-04-04T08:59:00;99827.97;;;20.60;46.50
41246;BME280;53880;47.526;18.986;2023-04-04T09:01:19;99816.78;;;20.57;46.51
41246;BME280;53880;47.526;18.986;2023-04-04T09:03:39;99808.91;;;20.55;46.67
41246;BME280;53880;47.526;18.986;2023-04-04T09:06:01;99812.91;;;20.51;46.64
41246;BME280;53880;47.526;18.986;2023-04-04T09:08:20;99812.09;;;20.50;46.77
41246;BME280;53880;47.526;18.986;2023-04-04T09:10:41;99805.03;;;20.49;46.83
41246;BME280;53880;47.526;18.986;2023-04-04T09:13:03;99807.03;;;20.47;46.81
41246;BME280;53880;47.526;18.986;2023-04-04T09:15:18;99814.56;;;20.44;46.78
41246;BME280;53880;47.526;18.986;2023-04-04T09:17:43;99821.06;;;20.41;46.77
41246;BME280;53880;47.526;18.986;2023-04-04T09:20:08;99816.72;;;20.40;46.84
41246;BME280;53880;47.526;18.986;2023-04-04T09:22:45;99816.88;;;20.39;47.08
41246;BME280;53880;47.526;18.986;2023-04-04T09:25:09;99804.84;;;20.35;46.75
41246;BME280;53880;47.526;18.986;2023-04-04T09:27:24;99810.50;;;20.32;46.74
41246;BME280;53880;47.526;18.986;2023-04-04T09:29:40;99829.22;;;20.32;47.02
41246;BME280;53880;47.526;18.986;2023-04-04T09:32:01;99828.41;;;20.31;46.77
41246;BME280;53880;47.526;18.986;2023-04-04T09:34:20;99813.03;;;20.33;46.71
41246;BME280;53880;47.526;18.986;2023-04-04T09:36:38;99805.69;;;20.35;46.63
41246;BME280;53880;47.526;18.986;2023-04-04T09:39:00;99808.00;;;20.38;46.53
41246;BME280;53880;47.526;18.986;2023-04-04T09:41:25;99806.38;;;20.45;46.85
41246;BME280;53880;47.526;18.986;2023-04-04T09:43:46;99810.22;;;20.51;47.12
41246;BME280;53880;47.526;18.986;2023-04-04T09:46:02;99814.94;;;20.57;47.24
41246;BME280;53880;47.526;18.986;2023-04-04T09:48:29;99816.78;;;20.65;47.15
41246;BME280;53880;47.526;18.986;2023-04-04T09:50:53;99797.56;;;20.69;46.99
41246;BME280;53880;47.526;18.986;2023-04-04T09:53:17;99794.88;;;20.77;46.69
41246;BME280;53880;47.526;18.986;2023-04-04T09:55:34;99781.00;;;20.82;46.34
41246;BME280;53880;47.526;18.986;2023-04-04T09:57:50;99787.69;;;20.86;46.24
41246;BME280;53880;47.526;18.986;2023-04-04T10:00:06;99801.59;;;20.89;46.38
41246;BME280;53880;47.526;18.986;2023-04-04T10:02:32;99800.41;;;20.92;46.45
41246;BME280;53880;47.526;18.986;2023-04-04T10:04:52;99789.56;;;20.93;46.29
41246;BME280;53880;47.526;18.986;2023-04-04T10:07:12;99803.78;;;20.94;46.23
41246;BME280;53880;47.526;18.986;2023-04-04T10:09:36;99801.13;;;20.94;46.20
41246;BME280;53880;47.526;18.986;2023-04-04T10:12:09;99800.28;;;20.93;46.15
41246;BME280;53880;47.526;18.986;2023-04-04T10:14:36;99801.13;;;20.94;46.30
41246;BME280;53880;47.526;18.986;2023-04-04T10:16:55;99799.44;;;20.93;46.07
41246;BME280;53880;47.526;18.986;2023-04-04T10:19:15;99788.03;;;20.91;46.20
41246;BME280;53880;47.526;18.986;2023-04-04T10:21:32;99790.72;;;20.91;46.06
41246;BME280;53880;47.526;18.986;2023-04-04T10:23:57;99786.72;;;20.87;46.12
41246;BME280;53880;47.526;18.986;2023-04-04T10:26:15;99785.88;;;20.86;46.21
41246;BME280;53880;47.526;18.986;2023-04-04T10:28:30;99785.19;;;20.84;45.91
41246;BME280;53880;47.526;18.986;2023-04-04T10:30:59;99776.31;;;20.84;46.14
41246;BME280;53880;47.526;18.986;2023-04-04T10:36:28;99772.13;;;20.81;46.06
41246;BME280;53880;47.526;18.986;2023-04-04T10:38:51;99759.09;;;20.78;46.16
41246;BME280;53880;47.526;18.986;2023-04-04T10:41:12;99762.94;;;20.76;45.97
41246;BME280;53880;47.526;18.986;2023-04-04T10:43:33;99749.72;;;20.74;46.08
41246;BME280;53880;47.526;18.986;2023-04-04T10:45:52;99757.09;;;20.72;46.05
41246;BME280;53880;47.526;18.986;2023-04-04T10:48:08;99756.41;;;20.70;46.27
41246;BME280;53880;47.526;18.986;2023-04-04T10:50:29;99762.75;;;20.69;46.13
41246;BME280;53880;47.526;18.986;2023-04-04T10:52:52;99758.56;;;20.67;46.21
41246;BME280;53880;47.526;18.986;2023-04-04T10:55:15;99754.22;;;20.66;46.06
41246;BME280;53880;47.526;18.986;2023-04-04T10:57:48;99754.38;;;20.64;46.35
41246;BME280;53880;47.526;18.986;2023-04-04T11:00:14;99759.91;;;20.63;46.35
41246;BME280;53880;47.526;18.986;2023-04-04T11:10:22;99752.72;;;20.55;46.32
41246;BME280;53880;47.526;18.986;2023-04-04T11:12:43;99747.50;;;20.53;46.52
41246;BME280;53880;47.526;18.986;2023-04-04T11:17:53;99733.63;;;20.50;46.49
41246;BME280;53880;47.526;18.986;2023-04-04T11:20:15;99742.50;;;20.50;46.54
41246;BME280;53880;47.526;18.986;2023-04-04T11:22:31;99742.63;;;20.49;46.48
41246;BME280;53880;47.526;18.986;2023-04-04T11:24:58;99745.50;;;20.47;46.50
41246;BME280;53880;47.526;18.986;2023-04-04T11:27:14;99747.31;;;20.47;46.63
41246;BME280;53880;47.526;18.986;2023-04-04T11:29:52;99750.19;;;20.45;46.67
41246;BME280;53880;47.526;18.986;2023-04-04T11:32:28;99742.31;;;20.44;46.61
41246;BME280;53880;47.526;18.986;2023-04-04T11:34:45;99730.09;;;20.41;46.56
41246;BME280;53880;47.526;18.986;2023-04-04T11:37:21;99728.59;;;20.39;46.75
41246;BME280;53880;47.526;18.986;2023-04-04T11:39:46;99733.28;;;20.37;46.62
41246;BME280;53880;47.526;18.986;2023-04-04T11:42:15;99736.13;;;20.35;46.64
41246;BME280;53880;47.526;18.986;2023-04-04T11:44:31;99729.25;;;20.33;46.71
41246;BME280;53880;47.526;18.986;2023-04-04T11:46:54;99723.06;;;20.32;46.68
41246;BME280;53880;47.526;18.986;2023-04-04T11:49:18;99731.25;;;20.31;46.73
41246;BME280;53880;47.526;18.986;2023-04-04T11:51:37;99707.50;;;20.28;46.72
41246;BME280;53880;47.526;18.986;2023-04-04T11:53:55;99708.50;;;20.27;46.53
41246;BME280;53880;47.526;18.986;2023-04-04T11:56:18;99696.13;;;20.26;46.71
41246;BME280;53880;47.526;18.986;2023-04-04T11:58:39;99719.34;;;20.25;46.74
41246;BME280;53880;47.526;18.986;2023-04-04T12:00:56;99716.69;;;20.25;46.72
41246;BME280;53880;47.526;18.986;2023-04-04T12:03:15;99710.50;;;20.25;46.67
41246;BME280;53880;47.526;18.986;2023-04-04T12:05:33;99707.97;;;20.23;46.74
41246;BME280;53880;47.526;18.986;2023-04-04T12:07:51;99707.13;;;20.23;46.83
41246;BME280;53880;47.526;18.986;2023-04-04T12:10:09;99697.13;;;20.25;46.65
41246;BME280;53880;47.526;18.986;2023-04-04T12:12:27;99701.47;;;20.26;46.79
41246;BME280;53880;47.526;18.986;2023-04-04T12:14:45;99699.28;;;20.29;46.68
41246;BME280;53880;47.526;18.986;2023-04-04T12:17:04;99697.16;;;20.33;46.73
41246;BME280;53880;47.526;18.986;2023-04-04T12:19:26;99686.75;;;20.38;46.86
41246;BME280;53880;47.526;18.986;2023-04-04T12:21:51;99694.97;;;20.44;47.03
41246;BME280;53880;47.526;18.986;2023-04-04T12:24:10;99688.13;;;20.50;46.38